createdAt,value
2023-04-23T00:23:31.768Z,12.6
2023-04-23T00:52:45.321Z,12.4
2023-04-23T01:21:58.636Z,12.3
2023-04-23T01:51:11.078Z,12.2
2023-04-23T02:20:23.358Z,12.1
2023-04-23T02:49:31.789Z,12
2023-04-23T03:18:39.559Z,11.8
2023-04-23T03:47:49.833Z,11.7
2023-04-23T04:16:55.857Z,11.5
2023-04-23T04:46:07.936Z,11.3
2023-04-23T05:15:00.047Z,11
2023-04-23T05:44:08.315Z,11
2023-04-23T06:13:21.200Z,11.5
2023-04-23T06:42:38.446Z,12.3
2023-04-23T07:11:57.492Z,13.1
2023-04-23T07:41:12.404Z,14.3
2023-04-23T08:10:33.316Z,15.4
2023-04-23T08:39:50.398Z,16.2
2023-04-23T09:09:05.117Z,16.7
2023-04-23T09:38:13.279Z,16.5
2023-04-23T10:07:33.623Z,16.9
2023-04-23T10:36:56.100Z,17.7
2023-04-23T11:06:20.768Z,19
2023-04-23T11:35:48.048Z,20.3
2023-04-23T12:05:20.072Z,21.6
2023-04-23T12:34:40.753Z,19.5
2023-04-23T13:03:47.873Z,19.5
2023-04-23T13:33:01.309Z,19.5
2023-04-23T14:02:21.236Z,19.8
2023-04-23T14:31:40.300Z,19.7
2023-04-23T15:01:00.060Z,19.1
2023-04-23T15:30:19.193Z,18
2023-04-23T15:59:15.757Z,17.1
2023-04-23T16:28:36.398Z,16.9
2023-04-23T16:58:00.458Z,16.4
2023-04-23T17:27:10.981Z,16
2023-04-23T17:56:25.888Z,15.4
2023-04-23T18:25:38.684Z,13.1
2023-04-23T18:54:51.614Z,12.3
2023-04-23T19:24:07.526Z,12.2
2023-04-23T19:53:07.790Z,12
2023-04-23T20:22:20.696Z,11.9
2023-04-23T20:51:24.343Z,12.1
2023-04-23T21:20:39.679Z,11.8
2023-04-23T21:50:01.780Z,11.6
2023-04-23T22:19:18.408Z,11.4
2023-04-23T22:48:37.475Z,11.4
2023-04-23T23:17:58.280Z,11.7
2023-04-23T23:47:16.239Z,11.6
